Time;durP1;ratioP1;P1;durP2;ratioP2;P2;SDS_P1;SDS_P2;PMS_P1;PMS_P2;Temp;Humidity;BMP_temperature;BMP_pressure;BME280_temperature;BME280_humidity;BME280_pressure;Samples;Min_cycle;Max_cycle;Signal;HPM_P1;HPM_P2
2023/08/21 00:01:52;;;;;;;22.83;5.70;;;;;;;-144.73;100.00;54411.81;4983972;28;20026;-74
2023/08/21 00:04:17;;;;;;;22.58;6.00;;;;;;;-144.73;100.00;54407.69;4986190;28;20053;-74
2023/08/21 00:06:43;;;;;;;20.17;6.25;;;;;;;-144.73;100.00;54428.22;4972461;28;20027;-74
2023/08/21 00:09:08;;;;;;;23.67;5.30;;;;;;;-144.73;100.00;54456.97;4974477;28;20030;-74
2023/08/21 00:11:34;;;;;;;20.20;5.80;;;;;;;-144.73;100.00;54448.75;4979017;28;20014;-74
2023/08/21 00:13:59;;;;;;;27.15;5.43;;;;;;;-144.73;100.00;54444.66;4972656;28;20026;-74
2023/08/21 00:16:26;;;;;;;28.60;5.25;;;;;;;-144.73;100.00;54450.81;4979078;28;20110;-74
2023/08/21 00:18:52;;;;;;;18.00;4.72;;;;;;;-144.73;100.00;54432.31;4970301;28;20069;-74
2023/08/21 00:21:18;;;;;;;15.38;5.35;;;;;;;-144.73;100.00;54428.22;4979423;28;20471;-74
2023/08/21 00:23:44;;;;;;;20.65;4.28;;;;;;;-144.73;100.00;54432.31;4970609;28;20027;-74
2023/08/21 00:26:09;;;;;;;13.95;4.70;;;;;;;-144.73;100.00;54407.69;4976189;28;20370;-74
2023/08/21 00:28:35;;;;;;;13.43;4.68;;;;;;;-144.73;100.00;54415.91;4976230;28;20048;-74
2023/08/21 00:31:04;;;;;;;23.17;5.25;;;;;;;-144.73;100.00;54440.53;4985693;28;20038;-74
2023/08/21 00:33:33;;;;;;;18.70;5.38;;;;;;;-144.73;100.00;54387.19;4970712;28;20029;-75
2023/08/21 00:35:59;;;;;;;16.25;4.72;;;;;;;-144.73;100.00;54432.31;4969957;28;20054;-74
2023/08/21 00:38:25;;;;;;;22.55;5.97;;;;;;;-144.73;100.00;54395.38;4986852;28;20073;-74
2023/08/21 00:40:51;;;;;;;19.48;5.38;;;;;;;-144.73;100.00;54448.75;4972669;28;20061;-74
2023/08/21 00:43:16;;;;;;;15.18;5.20;;;;;;;-144.73;100.00;54463.13;4978268;28;20470;-74
2023/08/21 00:45:43;;;;;;;16.58;5.10;;;;;;;-144.73;100.00;54411.81;4974848;28;20058;-74
2023/08/21 00:48:09;;;;;;;20.08;5.28;;;;;;;-144.73;100.00;54452.84;4973978;28;20483;-74
2023/08/21 00:50:36;;;;;;;15.25;5.10;;;;;;;-144.73;100.00;54442.59;4973891;28;20030;-74
2023/08/21 00:53:01;;;;;;;15.95;5.40;;;;;;;-144.73;100.00;54411.81;4992943;28;20023;-74
2023/08/21 00:55:27;;;;;;;19.33;5.55;;;;;;;-144.73;100.00;54428.22;4988281;28;20039;-74
2023/08/21 00:57:53;;;;;;;17.33;5.40;;;;;;;-144.73;100.00;54440.53;4983053;28;20045;-74
2023/08/21 01:00:19;;;;;;;18.30;4.93;;;;;;;-144.73;100.00;54420.00;4978963;28;20034;-74
2023/08/21 01:02:44;;;;;;;16.35;4.75;;;;;;;-144.73;100.00;54436.44;4977952;28;20106;-74
2023/08/21 01:05:10;;;;;;;12.02;5.20;;;;;;;-144.73;100.00;54432.31;4974326;28;20227;-73
2023/08/21 01:07:48;;;;;;;11.40;5.05;;;;;;;-144.73;100.00;54407.69;4973911;28;20389;-75
2023/08/21 01:10:23;;;;;;;15.82;4.50;;;;;;;-144.73;100.00;54440.53;4974022;28;20046;-75
2023/08/21 01:13:09;;;;;;;11.82;4.50;;;;;;;-144.73;100.00;54434.38;4973599;28;20027;-74
2023/08/21 01:15:36;;;;;;;20.70;6.65;;;;;;;-144.73;100.00;54413.84;4973136;28;20112;-74
2023/08/21 01:18:02;;;;;;;15.45;4.93;;;;;;;-144.73;100.00;54448.75;4973389;28;20023;-74
2023/08/21 01:20:28;;;;;;;13.57;5.18;;;;;;;-144.73;100.00;54461.06;4972980;28;20171;-74
2023/08/21 01:22:55;;;;;;;10.88;4.20;;;;;;;-144.73;100.00;54465.16;4983887;28;20054;-74
2023/08/21 01:25:20;;;;;;;15.88;4.82;;;;;;;-144.73;100.00;54442.59;4972418;28;20045;-74
2023/08/21 01:27:48;;;;;;;14.15;4.93;;;;;;;-144.73;100.00;54432.31;4973712;28;20498;-74
2023/08/21 01:30:14;;;;;;;17.58;5.35;;;;;;;-144.73;100.00;54469.28;4980690;28;20106;-74
2023/08/21 01:32:45;;;;;;;10.57;4.82;;;;;;;-144.73;100.00;54428.22;4973534;28;20111;-74
2023/08/21 01:35:11;;;;;;;15.60;5.90;;;;;;;-144.73;100.00;54407.69;4972764;28;20031;-74
2023/08/21 01:37:37;;;;;;;17.92;4.97;;;;;;;-144.73;100.00;54440.53;4979307;28;20041;-74
2023/08/21 01:40:04;;;;;;;17.90;5.63;;;;;;;-144.73;100.00;54428.22;4992045;28;20378;-74
2023/08/21 01:42:29;;;;;;;15.27;5.47;;;;;;;-144.73;100.00;54489.81;4994022;28;20026;-74
2023/08/21 01:44:54;;;;;;;16.20;5.65;;;;;;;-144.73;100.00;54428.22;4973164;28;20101;-74
2023/08/21 01:47:20;;;;;;;21.90;6.90;;;;;;;-144.73;100.00;54436.44;4973514;28;20030;-73
2023/08/21 01:49:45;;;;;;;13.82;6.25;;;;;;;-144.73;100.00;54450.81;4973536;28;20522;-74
2023/08/21 01:52:10;;;;;;;23.25;6.65;;;;;;;-144.73;100.00;54436.44;4973041;28;20034;-74
2023/08/21 01:54:36;;;;;;;17.08;5.80;;;;;;;-144.73;100.00;54489.81;4972597;28;20035;-73
2023/08/21 01:57:01;;;;;;;16.60;5.95;;;;;;;-144.73;100.00;54456.97;4973060;28;20034;-74
2023/08/21 01:59:26;;;;;;;27.20;6.82;;;;;;;-144.73;100.00;54397.44;4971904;28;20031;-74
2023/08/21 02:01:52;;;;;;;20.52;6.40;;;;;;;-144.73;100.00;54420.00;4972313;28;20035;-74
2023/08/21 02:04:17;;;;;;;20.92;7.22;;;;;;;-144.73;100.00;54415.91;4976755;28;20054;-74
2023/08/21 02:06:44;;;;;;;17.17;7.75;;;;;;;-144.73;100.00;54444.66;4978487;28;20038;-74
2023/08/21 02:09:09;;;;;;;17.73;8.07;;;;;;;-144.73;100.00;54440.53;4986463;28;20494;-73
2023/08/21 02:11:35;;;;;;;15.95;5.65;;;;;;;-144.73;100.00;54485.69;4976131;28;20030;-74
2023/08/21 02:14:00;;;;;;;20.65;6.82;;;;;;;-144.73;100.00;54477.47;4963781;28;20113;-75
2023/08/21 02:16:26;;;;;;;15.55;5.65;;;;;;;-144.73;100.00;54448.75;4972580;28;20025;-75
2023/08/21 02:18:51;;;;;;;16.38;6.03;;;;;;;-144.73;100.00;54391.28;4970403;28;20102;-75
2023/08/21 02:21:16;;;;;;;18.30;5.72;;;;;;;-144.73;100.00;54428.22;4980869;28;20093;-74
2023/08/21 02:23:42;;;;;;;17.17;5.70;;;;;;;-144.73;100.00;54446.69;4991017;28;20018;-74
2023/08/21 02:26:07;;;;;;;16.75;5.82;;;;;;;-144.73;100.00;54436.44;4991144;28;20097;-74
2023/08/21 02:28:32;;;;;;;12.30;5.88;;;;;;;-144.73;100.00;54407.69;4991769;28;20026;-74
2023/08/21 02:30:58;;;;;;;20.83;6.03;;;;;;;-144.73;100.00;54448.75;4990888;28;20110;-74
2023/08/21 02:33:23;;;;;;;17.30;6.63;;;;;;;-144.73;100.00;54459.00;4991397;28;20023;-74
2023/08/21 02:35:48;;;;;;;19.05;6.60;;;;;;;-144.73;100.00;54411.81;4990848;28;20033;-74
2023/08/21 02:38:14;;;;;;;22.63;8.43;;;;;;;-144.73;100.00;54440.53;4991410;28;20018;-74
2023/08/21 02:40:39;;;;;;;30.13;7.28;;;;;;;-144.73;100.00;54452.84;4990552;28;20073;-74
2023/08/21 02:43:04;;;;;;;17.15;7.15;;;;;;;-144.73;100.00;54407.69;4991203;28;20084;-74
2023/08/21 02:45:30;;;;;;;27.40;9.30;;;;;;;-144.73;100.00;54440.53;4990649;28;20058;-74
2023/08/21 02:47:56;;;;;;;25.10;8.30;;;;;;;-144.73;100.00;54456.97;4991259;28;20031;-74
2023/08/21 02:50:21;;;;;;;26.17;9.05;;;;;;;-144.73;100.00;54411.81;4990885;28;20027;-74
2023/08/21 02:52:46;;;;;;;28.13;9.23;;;;;;;-144.73;100.00;54456.97;4992826;28;20026;-74
2023/08/21 02:55:12;;;;;;;23.10;7.60;;;;;;;-144.73;100.00;54465.16;4990579;28;20116;-74
2023/08/21 02:57:37;;;;;;;26.35;8.40;;;;;;;-144.73;100.00;54473.38;4991113;28;20548;-74
2023/08/21 03:00:03;;;;;;;22.02;6.80;;;;;;;-144.73;100.00;54456.97;4991648;28;20034;-74
2023/08/21 03:02:29;;;;;;;25.10;7.07;;;;;;;-144.73;100.00;54415.91;4990448;28;20050;-74
2023/08/21 03:04:54;;;;;;;21.23;7.70;;;;;;;-144.73;100.00;54456.97;4990457;28;20120;-74
2023/08/21 03:07:20;;;;;;;24.33;8.00;;;;;;;-144.73;100.00;54432.31;4992327;28;20022;-74
2023/08/21 03:09:47;;;;;;;19.73;7.57;;;;;;;-144.73;100.00;54456.97;4990715;28;20077;-74
2023/08/21 03:12:12;;;;;;;18.30;8.10;;;;;;;-144.73;100.00;54461.06;4990678;28;20026;-74
2023/08/21 03:14:37;;;;;;;29.30;8.35;;;;;;;-144.73;100.00;54463.13;4990549;28;20069;-74
2023/08/21 03:17:03;;;;;;;22.77;6.93;;;;;;;-144.73;100.00;54415.91;4990526;28;20125;-74
2023/08/21 03:19:28;;;;;;;15.38;6.72;;;;;;;-144.73;100.00;54456.97;4990165;28;20054;-74
2023/08/21 03:21:54;;;;;;;21.77;7.88;;;;;;;-144.73;100.00;54452.84;4992159;28;20022;-74
2023/08/21 03:24:20;;;;;;;19.80;8.02;;;;;;;-144.73;100.00;54452.84;4990056;28;20030;-74
2023/08/21 03:26:45;;;;;;;26.55;7.43;;;;;;;-144.73;100.00;54452.84;4990723;28;20018;-74
2023/08/21 03:29:10;;;;;;;25.58;7.72;;;;;;;-144.73;100.00;54407.69;4990176;28;20027;-74
2023/08/21 03:31:35;;;;;;;19.33;7.80;;;;;;;-144.73;100.00;54448.75;4990679;28;20109;-74
2023/08/21 03:34:01;;;;;;;24.08;6.97;;;;;;;-144.73;100.00;54415.91;4990395;28;20109;-74
2023/08/21 03:36:32;;;;;;;27.95;7.72;;;;;;;-144.73;100.00;54444.66;4991407;28;20101;-74
2023/08/21 03:38:58;;;;;;;18.70;6.82;;;;;;;-144.73;100.00;54420.00;4991210;28;20023;-74
2023/08/21 03:41:24;;;;;;;21.77;6.50;;;;;;;-144.73;100.00;54465.16;4990704;28;20022;-74
2023/08/21 03:43:49;;;;;;;25.33;7.40;;;;;;;-144.73;100.00;54473.38;4990831;28;20049;-74
2023/08/21 03:46:14;;;;;;;28.25;8.43;;;;;;;-144.73;100.00;54448.75;4989957;28;20034;-73
2023/08/21 03:48:40;;;;;;;24.23;7.60;;;;;;;-144.73;100.00;54432.31;4990649;28;20038;-74
2023/08/21 03:51:05;;;;;;;28.63;8.45;;;;;;;-144.73;100.00;54432.31;4989905;28;20037;-73
2023/08/21 03:53:30;;;;;;;30.00;8.60;;;;;;;-144.73;100.00;54436.44;4990600;28;20031;-74
2023/08/21 03:55:56;;;;;;;20.85;8.13;;;;;;;-144.73;100.00;54448.75;4990120;28;20464;-74
2023/08/21 03:58:21;;;;;;;25.83;8.40;;;;;;;-144.73;100.00;54465.16;4990508;28;20030;-74
2023/08/21 04:00:46;;;;;;;25.02;8.10;;;;;;;-144.73;100.00;54481.59;4989738;28;20034;-74
2023/08/21 04:03:12;;;;;;;19.52;7.65;;;;;;;-144.73;100.00;54446.69;4991477;28;20113;-74
2023/08/21 04:05:37;;;;;;;31.73;8.23;;;;;;;-144.73;100.00;54473.38;4990472;28;20093;-74
2023/08/21 04:08:03;;;;;;;18.15;7.57;;;;;;;-144.73;100.00;54469.28;4990913;28;20031;-74
2023/08/21 04:10:28;;;;;;;29.75;8.38;;;;;;;-144.73;100.00;54417.97;4991584;28;20526;-74
2023/08/21 04:12:53;;;;;;;25.17;7.93;;;;;;;-144.73;100.00;54456.97;4990074;28;20032;-74
2023/08/21 04:15:19;;;;;;;28.48;8.77;;;;;;;-144.73;100.00;54444.66;4993580;28;20043;-74
2023/08/21 04:17:44;;;;;;;26.80;8.88;;;;;;;-144.73;100.00;54473.38;4994579;28;20029;-74
2023/08/21 04:20:10;;;;;;;25.05;7.78;;;;;;;-144.73;100.00;54444.66;4993534;28;20038;-74
2023/08/21 04:22:35;;;;;;;27.20;7.72;;;;;;;-144.73;100.00;54465.16;4995528;28;20022;-74
2023/08/21 04:25:01;;;;;;;32.80;9.35;;;;;;;-144.73;100.00;54411.81;4993649;28;20088;-74
2023/08/21 04:27:26;;;;;;;35.28;15.25;;;;;;;-144.73;100.00;54477.47;4994074;28;20052;-73
2023/08/21 04:29:53;;;;;;;29.38;11.73;;;;;;;-144.73;100.00;54481.59;4993040;28;20045;-74
2023/08/21 04:32:18;;;;;;;24.83;8.23;;;;;;;-144.73;100.00;54444.66;4994534;28;20106;-74
2023/08/21 04:34:44;;;;;;;26.20;7.00;;;;;;;-144.73;100.00;54428.22;4993442;28;20074;-74
2023/08/21 04:37:09;;;;;;;28.33;9.60;;;;;;;-144.73;100.00;54456.97;4994688;28;20105;-74
2023/08/21 04:39:36;;;;;;;24.85;8.38;;;;;;;-144.73;100.00;54454.91;4993308;28;20096;-74
2023/08/21 04:42:02;;;;;;;25.13;8.57;;;;;;;-144.73;100.00;54444.66;4993718;28;20496;-74
2023/08/21 04:44:27;;;;;;;30.90;8.65;;;;;;;-144.73;100.00;54432.31;4993643;28;20042;-74
2023/08/21 04:46:52;;;;;;;27.52;8.73;;;;;;;-144.73;100.00;54436.44;4993811;28;20029;-74
2023/08/21 04:49:18;;;;;;;28.60;8.32;;;;;;;-144.73;100.00;54446.69;4992945;28;20030;-74
2023/08/21 04:51:43;;;;;;;24.52;8.38;;;;;;;-144.73;100.00;54473.38;4994942;28;20022;-74
2023/08/21 04:54:08;;;;;;;27.73;8.45;;;;;;;-144.73;100.00;54481.59;4993173;28;20061;-74
2023/08/21 04:56:34;;;;;;;27.38;10.13;;;;;;;-144.73;100.00;54432.31;4993997;28;20030;-74
2023/08/21 04:58:59;;;;;;;33.88;10.23;;;;;;;-144.73;100.00;54444.66;4992695;28;20040;-74
2023/08/21 05:01:25;;;;;;;36.83;8.90;;;;;;;-144.73;100.00;54469.28;4993281;28;20450;-74
2023/08/21 05:03:51;;;;;;;24.98;8.25;;;;;;;-144.73;100.00;54465.16;4993075;28;20045;-74
2023/08/21 05:06:16;;;;;;;27.17;9.10;;;;;;;-144.73;100.00;54485.69;4993306;28;20034;-74
2023/08/21 05:08:42;;;;;;;25.33;8.45;;;;;;;-144.73;100.00;54438.50;4993272;28;20352;-74
2023/08/21 05:11:07;;;;;;;24.50;8.35;;;;;;;-144.73;100.00;54485.69;4992289;28;20061;-74
2023/08/21 05:13:33;;;;;;;22.00;8.20;;;;;;;-144.73;100.00;54432.31;4992742;28;20068;-74
2023/08/21 05:15:58;;;;;;;19.33;7.82;;;;;;;-144.73;100.00;54415.91;4993966;28;20049;-74
2023/08/21 05:18:25;;;;;;;27.58;8.80;;;;;;;-144.73;100.00;54436.44;4993272;28;20029;-74
2023/08/21 05:20:52;;;;;;;21.27;7.88;;;;;;;-144.73;100.00;54440.53;4992207;28;20077;-74
2023/08/21 05:23:17;;;;;;;37.55;7.68;;;;;;;-144.73;100.00;54448.75;4993657;28;20034;-75
2023/08/21 05:25:44;;;;;;;30.13;7.88;;;;;;;-144.73;100.00;54448.75;4991815;28;20165;-74
2023/08/21 05:28:09;;;;;;;32.00;8.25;;;;;;;-144.73;100.00;54440.53;4992912;28;20026;-75
2023/08/21 05:30:38;;;;;;;29.92;9.35;;;;;;;-144.73;100.00;54448.75;4992047;28;20034;-74
2023/08/21 05:33:03;;;;;;;23.58;7.50;;;;;;;-144.73;100.00;54452.84;4992307;28;20018;-74
2023/08/21 05:35:33;;;;;;;29.27;7.88;;;;;;;-144.73;100.00;54469.28;4992254;28;20053;-74
2023/08/21 05:37:58;;;;;;;26.35;7.28;;;;;;;-144.73;100.00;54432.31;4992874;28;20030;-74
2023/08/21 05:40:23;;;;;;;28.13;7.45;;;;;;;-144.73;100.00;54479.53;4991766;28;20375;-74
2023/08/21 05:42:48;;;;;;;32.90;6.78;;;;;;;-144.73;100.00;54393.34;4992491;28;20041;-74
2023/08/21 05:45:14;;;;;;;28.67;7.28;;;;;;;-144.73;100.00;54461.06;4992163;28;20031;-74
2023/08/21 05:47:39;;;;;;;29.65;7.15;;;;;;;-144.73;100.00;54432.31;4992686;28;20030;-74
2023/08/21 05:50:05;;;;;;;26.45;6.55;;;;;;;-144.73;100.00;54495.97;4991731;28;20082;-74
2023/08/21 05:52:30;;;;;;;23.45;5.90;;;;;;;-144.73;100.00;54463.13;4992489;28;20026;-74
2023/08/21 05:54:56;;;;;;;26.83;6.65;;;;;;;-144.73;100.00;54469.28;4991774;28;20068;-74
2023/08/21 05:57:21;;;;;;;23.70;5.78;;;;;;;-144.73;100.00;54448.75;4993649;28;20105;-75
2023/08/21 05:59:47;;;;;;;26.35;6.93;;;;;;;-144.73;100.00;54448.75;4991795;28;20027;-74
2023/08/21 06:02:13;;;;;;;22.42;6.38;;;;;;;-144.73;100.00;54444.66;4992488;28;20049;-74
2023/08/21 06:04:42;;;;;;;32.05;6.50;;;;;;;-144.73;100.00;54440.53;4991724;28;20041;-74
2023/08/21 06:07:08;;;;;;;23.95;5.30;;;;;;;-144.73;100.00;54456.97;4993415;28;20022;-75
2023/08/21 06:09:33;;;;;;;21.30;5.35;;;;;;;-144.73;100.00;54483.66;4992865;28;20027;-75
2023/08/21 06:12:00;;;;;;;21.77;4.80;;;;;;;-144.73;100.00;54424.13;4992046;28;20022;-74
2023/08/21 06:14:28;;;;;;;27.08;5.15;;;;;;;-144.73;100.00;54481.59;4991269;28;20058;-74
2023/08/21 06:16:59;;;;;;;28.17;5.28;;;;;;;-144.73;100.00;54473.38;4991698;28;20022;-74
2023/08/21 06:19:25;;;;;;;36.00;5.38;;;;;;;-144.73;100.00;54446.69;4990997;28;20042;-74
2023/08/21 06:21:50;;;;;;;24.00;5.57;;;;;;;-144.73;100.00;54481.59;4991738;28;20023;-74
2023/08/21 06:24:15;;;;;;;19.17;3.42;;;;;;;-144.73;100.00;54448.75;4992632;28;20037;-74
2023/08/21 06:26:41;;;;;;;16.17;3.75;;;;;;;-144.73;100.00;54452.84;4991912;28;20030;-74
2023/08/21 06:29:06;;;;;;;14.27;4.03;;;;;;;-144.73;100.00;54428.22;4991227;28;20038;-74
2023/08/21 06:31:31;;;;;;;23.33;3.63;;;;;;;-144.73;100.00;54436.44;4993190;28;20025;-74
2023/08/21 06:33:57;;;;;;;22.45;3.92;;;;;;;-144.73;100.00;54420.00;4991446;28;20045;-74
2023/08/21 06:36:22;;;;;;;17.98;5.00;;;;;;;-144.73;100.00;54469.28;4991776;28;20026;-75
2023/08/21 06:38:48;;;;;;;20.13;3.90;;;;;;;-144.73;100.00;54473.38;4991150;28;20113;-74
2023/08/21 06:41:13;;;;;;;26.30;4.40;;;;;;;-144.73;100.00;54465.16;4991095;28;20065;-74
2023/08/21 06:43:39;;;;;;;18.88;3.38;;;;;;;-144.73;100.00;54446.69;4992400;28;20030;-74
2023/08/21 06:46:04;;;;;;;24.80;4.15;;;;;;;-144.73;100.00;54446.69;4992108;28;20044;-75
2023/08/21 06:48:29;;;;;;;20.40;3.95;;;;;;;-144.73;100.00;54489.81;4991595;28;20022;-75
2023/08/21 06:50:55;;;;;;;16.60;3.72;;;;;;;-144.73;100.00;54432.31;4990379;28;20100;-74
2023/08/21 06:53:20;;;;;;;22.38;3.65;;;;;;;-144.73;100.00;54452.84;4992606;28;20055;-74
2023/08/21 06:55:46;;;;;;;23.08;4.07;;;;;;;-144.73;100.00;54428.22;4990965;28;20100;-75
2023/08/21 06:58:11;;;;;;;20.80;3.60;;;;;;;-144.73;100.00;54440.53;4991715;28;20129;-75
2023/08/21 07:00:37;;;;;;;26.88;3.60;;;;;;;-144.73;100.00;54420.00;4990855;28;20457;-76
2023/08/21 07:03:03;;;;;;;20.33;3.22;;;;;;;-144.73;100.00;54411.81;4991824;28;20026;-74
2023/08/21 07:05:28;;;;;;;13.27;2.83;;;;;;;-144.73;100.00;54420.00;4990805;28;20045;-75
2023/08/21 07:07:55;;;;;;;14.80;2.95;;;;;;;-144.73;100.00;54436.44;4990981;28;20026;-75
2023/08/21 07:10:20;;;;;;;15.27;2.05;;;;;;;-144.73;100.00;54485.69;4990571;28;20038;-75
2023/08/21 07:12:46;;;;;;;16.13;3.33;;;;;;;-144.73;100.00;54485.69;4991012;28;20018;-75
2023/08/21 07:15:11;;;;;;;14.20;2.58;;;;;;;-144.73;100.00;54461.06;4984785;28;20064;-75
2023/08/21 07:17:36;;;;;;;12.75;3.30;;;;;;;-144.73;100.00;54407.69;4991114;28;20065;-75
2023/08/21 07:20:03;;;;;;;14.35;2.95;;;;;;;-144.73;100.00;54424.13;4990471;28;20046;-74
2023/08/21 07:22:29;;;;;;;15.23;2.55;;;;;;;-144.73;100.00;54498.00;4992236;28;20037;-74
2023/08/21 07:24:54;;;;;;;15.07;2.92;;;;;;;-144.73;100.00;54461.06;4990875;28;20053;-75
2023/08/21 07:27:20;;;;;;;16.67;2.70;;;;;;;-144.73;100.00;54477.47;4991784;28;20044;-75
2023/08/21 07:29:45;;;;;;;16.33;2.72;;;;;;;-144.73;100.00;54432.31;4990577;28;20126;-75
2023/08/21 07:32:10;;;;;;;14.13;3.33;;;;;;;-144.73;100.00;54442.59;4990913;28;20030;-75
2023/08/21 07:34:36;;;;;;;14.55;3.53;;;;;;;-144.73;100.00;54463.13;4990447;28;20069;-75
2023/08/21 07:37:01;;;;;;;13.00;2.28;;;;;;;-144.73;100.00;54440.53;4990878;28;20513;-75
2023/08/21 07:39:27;;;;;;;10.73;2.30;;;;;;;-144.73;100.00;54432.31;4991059;28;20034;-75
2023/08/21 07:41:52;;;;;;;9.52;2.10;;;;;;;-144.73;100.00;54432.31;4992519;28;20018;-75
2023/08/21 07:44:19;;;;;;;13.88;2.40;;;;;;;-144.73;100.00;54415.91;4992699;28;20030;-75
2023/08/21 07:46:44;;;;;;;9.40;2.03;;;;;;;-144.73;100.00;54415.91;4991656;28;20466;-75
2023/08/21 07:49:10;;;;;;;7.78;2.20;;;;;;;-144.73;100.00;54370.75;4992119;28;20036;-75
2023/08/21 07:51:36;;;;;;;11.63;2.20;;;;;;;-144.73;100.00;54424.13;4996542;28;20041;-73
2023/08/21 07:54:01;;;;;;;13.60;2.40;;;;;;;-144.73;100.00;54420.00;4995032;28;20022;-74
2023/08/21 07:56:26;;;;;;;16.27;2.42;;;;;;;-144.73;100.00;54383.06;4995660;28;20045;-74
2023/08/21 07:58:52;;;;;;;19.98;3.00;;;;;;;-144.73;100.00;54399.50;4995239;28;20022;-74
2023/08/21 08:01:17;;;;;;;9.38;1.95;;;;;;;-144.73;100.00;54409.75;4994848;28;20038;-75
2023/08/21 08:03:43;;;;;;;12.38;2.63;;;;;;;-144.73;100.00;54415.91;4996801;28;20113;-74
2023/08/21 08:06:08;;;;;;;12.13;2.97;;;;;;;-144.73;100.00;54378.97;4991050;28;20030;-72
2023/08/21 08:08:33;;;;;;;8.70;2.40;;;;;;;-144.73;100.00;54395.38;4990963;28;20038;-73
2023/08/21 08:11:03;;;;;;;12.32;2.55;;;;;;;-144.73;100.00;54420.00;4990440;28;20026;-73
2023/08/21 08:13:29;;;;;;;11.32;2.35;;;;;;;-144.73;100.00;54383.06;4991786;28;20086;-73
2023/08/21 08:15:54;;;;;;;11.82;2.45;;;;;;;-144.73;100.00;54407.69;4991438;28;20105;-73
2023/08/21 08:18:20;;;;;;;14.18;3.20;;;;;;;-144.73;100.00;54391.28;4991138;28;20023;-72
2023/08/21 08:20:45;;;;;;;9.02;2.30;;;;;;;-144.73;100.00;54420.00;4989971;28;20045;-73
2023/08/21 08:23:11;;;;;;;12.30;2.22;;;;;;;-144.73;100.00;54424.13;4990924;28;20054;-72
2023/08/21 08:25:36;;;;;;;7.63;2.05;;;;;;;-144.73;100.00;54387.19;4990884;28;20034;-73
2023/08/21 08:28:02;;;;;;;12.95;2.97;;;;;;;-144.73;100.00;54432.31;4991837;28;20026;-73
2023/08/21 08:30:27;;;;;;;13.32;2.30;;;;;;;-144.73;100.00;54374.84;4991894;28;20088;-73
2023/08/21 08:32:53;;;;;;;7.00;2.08;;;;;;;-144.73;100.00;54374.84;4990740;28;20058;-73
2023/08/21 08:35:18;;;;;;;16.33;2.75;;;;;;;-144.73;100.00;54387.19;4990412;28;20042;-73
2023/08/21 08:37:43;;;;;;;7.38;2.15;;;;;;;-144.73;100.00;54366.66;4990474;28;20041;-73
2023/08/21 08:40:11;;;;;;;6.78;1.88;;;;;;;-144.73;100.00;54407.69;4990933;28;20053;-73
2023/08/21 08:42:36;;;;;;;17.35;2.42;;;;;;;-144.73;100.00;54391.28;4992835;28;20053;-74
2023/08/21 08:45:03;;;;;;;13.77;2.63;;;;;;;-144.73;100.00;54356.38;4989319;28;20405;-74
2023/08/21 08:47:34;;;;;;;6.85;1.70;;;;;;;-144.73;100.00;54424.13;4990119;28;20093;-73
2023/08/21 08:50:07;;;;;;;17.85;2.47;;;;;;;-144.73;100.00;54428.22;4991456;28;20034;-73
2023/08/21 08:52:38;;;;;;;17.17;2.17;;;;;;;-144.73;100.00;54383.06;4990568;28;20095;-73
2023/08/21 08:55:04;;;;;;;7.72;1.90;;;;;;;-144.73;94.12;54358.44;4989758;28;20035;-73
2023/08/21 08:57:30;;;;;;;5.47;1.48;;;;;;;-144.73;94.17;54358.44;4990199;28;20057;-73
2023/08/21 08:59:55;;;;;;;10.55;1.92;;;;;;;-144.73;93.41;54366.66;4988809;28;20038;-73
2023/08/21 09:02:21;;;;;;;9.65;1.55;;;;;;;-144.73;93.38;54329.72;4990314;28;20089;-73
2023/08/21 09:04:47;;;;;;;8.50;1.90;;;;;;;-144.73;100.00;54374.84;4989802;28;20035;-73
2023/08/21 09:07:12;;;;;;;7.38;2.13;;;;;;;-144.73;100.00;54407.69;4991330;28;20053;-74
2023/08/21 09:09:44;;;;;;;9.05;1.67;;;;;;;-144.73;95.42;54391.28;4991120;28;20030;-72
2023/08/21 09:12:14;;;;;;;8.25;1.48;;;;;;;-144.73;91.97;54366.66;4989692;28;20093;-73
2023/08/21 09:14:41;;;;;;;7.60;1.58;;;;;;;-144.73;91.57;54360.50;4988867;28;20035;-73
2023/08/21 09:17:07;;;;;;;11.82;2.13;;;;;;;-144.73;86.18;54374.84;4989765;28;20018;-73
2023/08/21 09:19:33;;;;;;;8.43;1.80;;;;;;;-144.73;86.55;54366.66;4988876;28;20084;-73
2023/08/21 09:21:59;;;;;;;9.85;1.65;;;;;;;-144.73;84.53;54366.66;4991049;28;20038;-72
2023/08/21 09:24:24;;;;;;;15.32;1.90;;;;;;;-144.73;86.12;54356.38;4990539;28;20166;-73
2023/08/21 09:26:50;;;;;;;6.65;1.80;;;;;;;-144.73;86.15;54366.66;4989440;28;20038;-72
2023/08/21 09:29:15;;;;;;;6.70;1.52;;;;;;;-144.73;84.45;54378.97;4989290;28;20030;-73
2023/08/21 09:31:43;;;;;;;6.07;1.40;;;;;;;-144.73;83.82;54411.81;4989463;28;20019;-73
2023/08/21 09:34:09;;;;;;;5.35;1.30;;;;;;;-144.73;80.97;54374.84;4990334;28;20064;-73
2023/08/21 09:36:35;;;;;;;3.60;1.20;;;;;;;-144.73;81.92;54370.75;4989382;28;20065;-73
2023/08/21 09:39:02;;;;;;;8.35;1.38;;;;;;;-144.73;81.31;54378.97;4990342;28;20116;-73
2023/08/21 09:41:27;;;;;;;8.60;1.80;;;;;;;-144.73;80.57;54387.19;4990291;28;20022;-73
2023/08/21 09:43:58;;;;;;;6.70;1.85;;;;;;;-144.73;79.70;54407.69;4988939;28;20109;-73
2023/08/21 09:46:25;;;;;;;5.10;1.42;;;;;;;-144.73;79.80;54309.19;5009789;28;20042;-72
2023/08/21 09:48:55;;;;;;;7.80;1.50;;;;;;;-144.73;80.76;54366.66;5009150;28;20056;-73
2023/08/21 09:51:20;;;;;;;10.77;2.30;;;;;;;-144.73;79.90;54366.66;4988857;28;20054;-73
2023/08/21 09:53:49;;;;;;;10.45;1.58;;;;;;;-144.73;79.45;54354.34;4990792;28;20445;-73
2023/08/21 09:56:18;;;;;;;7.05;1.70;;;;;;;-144.73;75.96;54370.75;4988988;28;20414;-73
2023/08/21 09:58:43;;;;;;;5.00;1.30;;;;;;;-144.73;80.05;54383.06;4990092;28;20029;-73
2023/08/21 10:01:14;;;;;;;6.20;1.80;;;;;;;-144.73;78.96;54372.81;4988781;28;20038;-73
2023/08/21 10:03:40;;;;;;;8.27;1.83;;;;;;;-144.73;75.45;54372.81;4989162;28;20033;-73
2023/08/21 10:06:11;;;;;;;5.35;1.60;;;;;;;-144.73;75.48;54325.59;4988775;28;20035;-73
2023/08/21 10:08:40;;;;;;;5.68;1.30;;;;;;;-144.73;73.06;54360.50;4989380;28;20026;-73
2023/08/21 10:11:09;;;;;;;4.43;1.45;;;;;;;-144.73;73.18;54333.81;4988802;28;20041;-73
2023/08/21 10:13:37;;;;;;;7.80;1.60;;;;;;;-144.73;71.53;54342.03;4987359;28;20072;-73
2023/08/21 10:16:05;;;;;;;6.93;1.55;;;;;;;-144.73;72.89;54362.53;4988902;28;20076;-73
2023/08/21 10:18:34;;;;;;;7.50;1.50;;;;;;;-144.73;73.59;54296.88;4988988;28;20030;-73
2023/08/21 10:21:12;;;;;;;9.45;1.52;;;;;;;-144.73;74.43;54305.06;4987893;28;20057;-73
2023/08/21 10:23:39;;;;;;;6.55;2.03;;;;;;;-144.73;71.00;54313.28;4988828;28;20034;-72
2023/08/21 10:26:09;;;;;;;7.68;1.90;;;;;;;-144.73;71.81;54356.38;4989406;28;20039;-74
2023/08/21 10:28:54;;;;;;;7.88;1.67;;;;;;;-144.73;71.37;54362.53;4988503;28;20022;-73
2023/08/21 10:31:36;;;;;;;7.03;1.58;;;;;;;-144.73;72.06;54346.13;4988545;28;20139;-74
2023/08/21 10:34:04;;;;;;;7.68;2.15;;;;;;;-144.73;70.77;54337.91;4988700;28;20037;-73
2023/08/21 10:36:44;;;;;;;4.20;1.40;;;;;;;-144.73;67.95;54342.03;4988286;28;20026;-73
2023/08/21 10:39:23;;;;;;;9.30;1.63;;;;;;;-144.73;72.08;54329.72;4988887;28;20034;-73
2023/08/21 10:42:01;;;;;;;10.07;2.35;;;;;;;-144.73;70.52;54350.22;4988678;28;20121;-73
2023/08/21 10:44:41;;;;;;;5.55;1.73;;;;;;;-144.73;71.83;54368.69;4988526;28;20035;-73
2023/08/21 10:47:20;;;;;;;6.87;1.63;;;;;;;-144.73;76.21;54389.22;4989381;28;20031;-73
2023/08/21 10:49:47;;;;;;;8.82;1.40;;;;;;;-144.73;69.67;54346.13;4988621;28;20328;-73
2023/08/21 10:52:14;;;;;;;5.78;1.90;;;;;;;-144.73;70.45;54337.91;4988768;28;20428;-73
2023/08/21 10:54:45;;;;;;;7.25;1.50;;;;;;;-144.73;67.46;54337.91;4988061;28;20165;-74
2023/08/21 10:57:10;;;;;;;3.13;1.30;;;;;;;-144.73;70.04;54350.22;4988193;28;20049;-73
2023/08/21 10:59:35;;;;;;;6.78;1.90;;;;;;;-144.73;67.14;54354.34;4987195;28;20269;-72
2023/08/21 11:02:01;;;;;;;6.72;1.35;;;;;;;-144.73;69.32;54354.34;4987386;28;20118;-74